Adams Landing, Vermont
Current Conditions -  °F | °C
As of 11:53 PM on Thursday 27 Nov 2014 (Local Time) from KPBG Reporting Station
Overcast Overcast  
Wind Chill: 27°   Ceiling: 4500
Heat Index: 27°   Visibility: 10mi
Dew Point: 21°   Wind: 3mph
Humidity: 78%   Direction: 320°NW
Pressure: 30.05"   Gusts: NA
Location:  44.717°N, 73.3067°W
Report Text: KPBG 280453Z AUTO 32003KT 10SM OVC045 M03/M06 A3005 RMK AO2 SLP178 T10281061 410171033
Loading
Personal Weather Stations






























Interactive Weather Map New forecast layout! Learn more

10-Day Weather Forecast

Advertisements
Track Severe Weather on mobile